createdAt,value
2022-08-16T00:04:54.679Z,4.30
2022-08-16T00:10:03.320Z,5.27
2022-08-16T00:15:13.128Z,4.53
2022-08-16T00:20:22.389Z,4.60
2022-08-16T00:30:37.179Z,4.67
2022-08-16T00:35:46.220Z,4.60
2022-08-16T00:40:56.539Z,4.57
2022-08-16T00:46:34.429Z,4.60
2022-08-16T00:51:17.468Z,5.07
2022-08-16T00:56:56.281Z,4.63
2022-08-16T01:01:36.930Z,4.63
2022-08-16T01:06:49.207Z,4.63
2022-08-16T01:11:55.111Z,4.33
2022-08-16T01:17:03.403Z,4.80
2022-08-16T01:22:48.171Z,5.10
2022-08-16T01:27:26.157Z,5.07
2022-08-16T01:32:39.047Z,4.97
2022-08-16T01:37:54.146Z,5.03
2022-08-16T01:42:58.984Z,4.70
2022-08-16T01:48:06.242Z,4.77
2022-08-16T01:53:15.290Z,4.43
2022-08-16T01:58:24.901Z,4.40
2022-08-16T02:03:32.558Z,4.30
2022-08-16T02:08:39.850Z,4.43
2022-08-16T02:13:47.150Z,4.67
2022-08-16T02:18:57.230Z,4.50
2022-08-16T02:24:31.571Z,4.87
2022-08-16T02:29:14.482Z,4.67
2022-08-16T02:34:34.707Z,4.30
2022-08-16T02:39:33.870Z,4.43
2022-08-16T02:44:42.404Z,4.43
2022-08-16T02:50:28.043Z,4.20
2022-08-16T02:54:59.488Z,4.43
2022-08-16T03:00:34.695Z,4.43
2022-08-16T03:05:21.171Z,4.30
2022-08-16T03:10:33.466Z,4.50
2022-08-16T03:15:37.411Z,4.60
2022-08-16T03:20:46.713Z,4.87
2022-08-16T03:25:58.217Z,5.17
2022-08-16T03:31:07.359Z,4.37
2022-08-16T03:36:30.566Z,4.80
2022-08-16T03:41:25.293Z,4.87
2022-08-16T03:46:48.142Z,4.80
2022-08-16T03:51:44.932Z,4.77
2022-08-16T03:56:56.724Z,4.73
2022-08-16T04:02:07.240Z,5.00
2022-08-16T04:07:12.518Z,5.17
2022-08-16T04:12:52.179Z,4.60
2022-08-16T04:17:30.501Z,4.70
2022-08-16T04:22:39.828Z,4.50
2022-08-16T04:27:54.372Z,5.07
2022-08-16T04:32:55.825Z,4.83
2022-08-16T04:38:10.973Z,4.70
2022-08-16T04:43:17.514Z,5.00
2022-08-16T04:48:32.833Z,4.47
2022-08-16T04:53:34.844Z,4.60
2022-08-16T04:58:45.761Z,4.50
2022-08-16T05:04:00.688Z,4.87
2022-08-16T05:08:59.471Z,4.80
2022-08-16T05:14:07.570Z,4.80
2022-08-16T05:19:17.710Z,4.80
2022-08-16T05:24:26.183Z,4.63
2022-08-16T05:30:00.173Z,4.67
2022-08-16T05:34:43.503Z,4.40
2022-08-16T05:39:51.831Z,4.77
2022-08-16T05:45:01.399Z,4.23
2022-08-16T05:50:19.137Z,4.50
2022-08-16T05:55:20.116Z,4.60
2022-08-16T06:00:29.982Z,4.50
2022-08-16T06:05:41.666Z,4.80
2022-08-16T06:11:10.264Z,4.40
2022-08-16T06:15:54.530Z,4.37
2022-08-16T06:21:14.855Z,4.40
2022-08-16T06:26:24.342Z,4.97
2022-08-16T06:31:33.614Z,4.70
2022-08-16T06:36:42.912Z,4.20
2022-08-16T06:41:51.481Z,4.33
2022-08-16T06:47:02.709Z,4.00
2022-08-16T06:52:57.204Z,4.20
2022-08-16T06:57:21.144Z,3.77
2022-08-16T07:02:33.411Z,4.20
2022-08-16T07:07:40.197Z,4.00
2022-08-16T07:13:04.329Z,4.20
2022-08-16T07:18:00.953Z,4.23
2022-08-16T07:23:13.221Z,4.57
2022-08-16T07:28:24.461Z,4.03
2022-08-16T07:33:52.107Z,4.10
2022-08-16T07:38:39.047Z,3.70
2022-08-16T07:43:47.611Z,3.63
2022-08-16T07:48:55.348Z,3.57
2022-08-16T07:54:09.322Z,3.43
2022-08-16T07:59:16.003Z,3.77
2022-08-16T08:04:24.036Z,3.50
2022-08-16T08:09:32.510Z,4.10
2022-08-16T08:14:40.055Z,4.00
2022-08-16T08:19:53.209Z,3.80
2022-08-16T08:24:59.197Z,3.40
2022-08-16T08:30:48.998Z,3.90
2022-08-16T08:35:16.186Z,3.83
2022-08-16T08:40:27.458Z,3.70
2022-08-16T08:45:47.799Z,4.00
2022-08-16T08:50:44.234Z,3.80
2022-08-16T08:55:58.670Z,3.70
2022-08-16T09:01:01.796Z,3.50
2022-08-16T09:06:10.450Z,3.77
2022-08-16T09:11:19.264Z,3.60
2022-08-16T09:17:01.716Z,3.03
2022-08-16T09:21:36.940Z,3.20
2022-08-16T09:26:46.479Z,3.70
2022-08-16T09:31:53.539Z,3.50
2022-08-16T09:37:00.992Z,3.37
2022-08-16T09:42:08.136Z,3.40
2022-08-16T09:47:16.664Z,3.80
2022-08-16T09:52:26.482Z,3.57
2022-08-16T09:57:34.582Z,3.50
2022-08-16T10:02:44.094Z,3.10
2022-08-16T10:07:56.657Z,3.23
2022-08-16T10:13:03.702Z,3.47
2022-08-16T10:18:56.831Z,3.70
2022-08-16T10:23:21.807Z,3.13
2022-08-16T10:28:32.283Z,3.43
2022-08-16T10:33:40.257Z,3.77
2022-08-16T10:38:47.819Z,3.57
2022-08-16T10:43:56.787Z,3.60
2022-08-16T10:49:05.251Z,3.73
2022-08-16T10:54:28.638Z,3.67
2022-08-16T10:59:32.927Z,3.73
2022-08-16T11:09:43.911Z,2.97
2022-08-16T11:20:42.005Z,3.53
2022-08-16T11:25:15.224Z,3.60
2022-08-16T11:30:19.955Z,3.70
2022-08-16T11:40:40.885Z,3.50
2022-08-16T11:45:53.600Z,3.40
2022-08-16T11:50:59.204Z,3.87
2022-08-16T11:56:07.148Z,3.30
2022-08-16T12:01:15.694Z,3.60
2022-08-16T12:06:24.922Z,3.67
2022-08-16T12:11:33.438Z,3.70
2022-08-16T12:16:48.578Z,3.90
2022-08-16T12:21:59.064Z,3.60
2022-08-16T12:26:59.981Z,4.03
2022-08-16T12:32:35.664Z,3.83
2022-08-16T12:37:17.157Z,3.87
2022-08-16T12:42:35.631Z,3.67
2022-08-16T12:47:38.305Z,3.70
2022-08-16T12:52:53.077Z,4.00
2022-08-16T12:57:58.839Z,3.97
2022-08-16T13:03:07.911Z,4.57
2022-08-16T13:08:20.231Z,4.50
2022-08-16T13:13:29.536Z,4.00
2022-08-16T13:18:36.788Z,4.33
2022-08-16T13:23:44.350Z,4.07
2022-08-16T13:28:51.407Z,4.23
2022-08-16T13:33:59.092Z,4.40
2022-08-16T13:39:07.048Z,4.37
2022-08-16T13:44:15.626Z,4.30
2022-08-16T13:49:22.949Z,4.30
2022-08-16T13:54:31.987Z,4.40
2022-08-16T13:59:40.045Z,4.27
2022-08-16T14:04:47.491Z,4.37
2022-08-16T14:09:56.076Z,4.30
2022-08-16T14:15:05.073Z,4.30
2022-08-16T14:20:14.502Z,4.20
2022-08-16T14:25:23.718Z,3.97
2022-08-16T14:30:30.856Z,4.37
2022-08-16T14:35:50.126Z,4.00
2022-08-16T14:40:54.740Z,4.10
2022-08-16T14:45:57.979Z,4.70
2022-08-16T14:51:05.051Z,4.20
2022-08-16T14:56:15.016Z,4.43
2022-08-16T15:01:24.000Z,4.20
2022-08-16T15:06:32.785Z,4.33
2022-08-16T15:11:44.984Z,4.10
2022-08-16T15:16:49.485Z,4.30
2022-08-16T15:21:56.652Z,4.20
2022-08-16T15:27:03.994Z,3.93
2022-08-16T15:32:11.932Z,4.27
2022-08-16T15:37:20.241Z,4.30
2022-08-16T15:42:28.928Z,4.07
2022-08-16T15:47:36.351Z,3.80
2022-08-16T15:52:43.521Z,3.50
2022-08-16T15:57:52.374Z,4.03
2022-08-16T16:03:02.443Z,4.23
2022-08-16T16:08:11.749Z,4.63
2022-08-16T16:13:20.548Z,4.10
2022-08-16T16:18:30.267Z,4.00
2022-08-16T16:23:44.388Z,4.10
2022-08-16T16:29:08.484Z,4.00
2022-08-16T16:33:59.098Z,4.07
2022-08-16T16:39:08.892Z,4.30
2022-08-16T16:44:18.181Z,4.20
2022-08-16T16:49:24.824Z,3.93
2022-08-16T16:54:35.116Z,3.97
2022-08-16T16:59:42.131Z,4.00
2022-08-16T17:04:50.515Z,3.87
2022-08-16T17:09:57.491Z,4.00
2022-08-16T17:15:06.357Z,3.90
2022-08-16T17:20:15.646Z,4.57
2022-08-16T17:25:25.007Z,4.10
2022-08-16T17:30:45.593Z,4.00
2022-08-16T17:35:45.579Z,4.10
2022-08-16T17:40:58.582Z,4.40
2022-08-16T17:46:41.726Z,3.70
2022-08-16T17:51:17.329Z,4.10
2022-08-16T17:56:24.198Z,4.53
2022-08-16T18:01:31.207Z,4.20
2022-08-16T18:06:39.921Z,3.83
2022-08-16T18:11:46.951Z,4.20
2022-08-16T18:16:55.207Z,4.40
2022-08-16T18:22:03.906Z,4.20
2022-08-16T18:27:26.379Z,4.20
2022-08-16T18:32:24.425Z,4.67
2022-08-16T18:37:28.644Z,4.70
2022-08-16T18:42:35.557Z,4.67
2022-08-16T18:47:42.435Z,4.83
2022-08-16T18:52:50.988Z,4.60
2022-08-16T18:57:58.956Z,5.07
2022-08-16T19:03:08.838Z,5.00
2022-08-16T19:08:17.144Z,4.80
2022-08-16T19:13:27.318Z,4.73
2022-08-16T19:18:36.897Z,5.10
2022-08-16T19:23:45.087Z,5.30
2022-08-16T19:28:59.750Z,5.50
2022-08-16T19:34:01.760Z,6.10
2022-08-16T19:39:11.583Z,5.50
2022-08-16T19:44:19.203Z,5.70
2022-08-16T19:49:26.067Z,6.17
2022-08-16T19:54:40.162Z,5.27
2022-08-16T19:59:42.800Z,5.30
2022-08-16T20:04:52.417Z,5.27
2022-08-16T20:10:12.791Z,5.60
2022-08-16T20:15:26.724Z,5.90
2022-08-16T20:20:31.476Z,5.87
2022-08-16T20:25:41.418Z,5.40
2022-08-16T20:30:51.533Z,5.53
2022-08-16T20:36:00.970Z,6.10
2022-08-16T20:41:15.931Z,5.30
2022-08-16T20:52:44.666Z,5.67
2022-08-16T20:57:59.076Z,6.00
2022-08-16T21:03:23.180Z,5.30
2022-08-16T21:08:51.551Z,5.20
2022-08-16T21:14:00.660Z,5.60
2022-08-16T21:19:14.526Z,5.27
2022-08-16T21:24:30.279Z,5.53
2022-08-16T21:29:48.823Z,5.80
2022-08-16T21:35:05.831Z,5.60
2022-08-16T22:14:30.548Z,5.73
2022-08-16T22:19:42.201Z,5.90
2022-08-16T22:24:52.098Z,5.83
2022-08-16T22:30:01.971Z,5.87
2022-08-16T22:35:14.881Z,5.93
2022-08-16T22:40:22.567Z,5.93
2022-08-16T22:45:35.901Z,6.17
2022-08-16T22:51:00.644Z,6.07
2022-08-16T23:01:50.336Z,5.67
2022-08-16T23:06:57.777Z,5.57
2022-08-16T23:12:08.947Z,6.37
2022-08-16T23:17:34.769Z,5.70
2022-08-16T23:23:20.913Z,6.23
2022-08-16T23:28:11.614Z,6.23
2022-08-16T23:33:33.322Z,5.90
2022-08-16T23:38:45.016Z,6.43
2022-08-16T23:49:59.138Z,6.07
2022-08-16T23:54:27.453Z,6.00
